Time;durP1;ratioP1;P1;durP2;ratioP2;P2;SDS_P1;SDS_P2;PMS_P1;PMS_P2;Temp;Humidity;BMP_temperature;BMP_pressure;BME280_temperature;BME280_humidity;BME280_pressure;Samples;Min_cycle;Max_cycle;Signal;HPM_P1;HPM_P2
2023/01/05 00:01:11;;;;;;;67.93;22.42;;;;;;;13.35;51.33;93518.03;4992836;28;20037;-87
2023/01/05 00:03:36;;;;;;;62.53;23.10;;;;;;;13.34;51.52;93521.19;4979263;28;20042;-85
2023/01/05 00:06:11;;;;;;;68.50;23.77;;;;;;;13.33;51.54;93517.75;4975525;28;20058;-92
2023/01/05 00:08:37;;;;;;;67.32;22.67;;;;;;;13.33;51.75;93528.59;4978020;28;20128;-91
2023/01/05 00:24:45;;;;;;;59.95;22.92;;;;;;;13.35;51.68;93499.00;4972097;28;20550;-86
2023/01/05 00:27:10;;;;;;;62.40;23.42;;;;;;;13.31;51.54;93506.59;4970640;28;20046;-87
2023/01/05 00:29:36;;;;;;;55.40;20.73;;;;;;;13.34;51.54;93499.47;4972030;28;20041;-94
2023/01/05 00:32:01;;;;;;;63.17;22.38;;;;;;;13.34;51.81;93499.47;4955324;28;20035;-86
2023/01/05 00:34:26;;;;;;;57.47;21.75;;;;;;;13.34;51.61;93500.22;4974376;28;20030;-87
2023/01/05 00:36:52;;;;;;;67.38;22.17;;;;;;;13.33;51.77;93495.28;4975158;28;20042;-89
2023/01/05 00:39:17;;;;;;;60.63;21.52;;;;;;;13.33;51.67;93493.31;4990083;28;20049;-92
2023/01/05 00:41:43;;;;;;;61.05;21.73;;;;;;;13.30;51.92;93493.50;5006275;28;20377;-88
2023/01/05 00:44:08;;;;;;;62.25;20.77;;;;;;;13.32;51.70;93491.06;4982383;28;20513;-85
2023/01/05 00:46:33;;;;;;;59.45;20.75;;;;;;;13.35;51.56;93493.59;4991439;28;20066;-85
2023/01/05 00:48:59;;;;;;;58.67;21.27;;;;;;;13.38;51.56;93492.63;4989848;28;20607;-85
2023/01/05 00:51:24;;;;;;;56.03;21.98;;;;;;;13.36;51.92;93507.91;4972223;28;20038;-92
2023/01/05 00:53:50;;;;;;;62.78;21.60;;;;;;;13.37;51.70;93501.25;4953347;28;20049;-84
2023/01/05 00:56:15;;;;;;;60.55;21.25;;;;;;;13.37;52.34;93498.53;5001982;28;20046;-85
2023/01/05 00:58:40;;;;;;;51.40;20.23;;;;;;;13.34;51.89;93494.81;4988758;28;20038;-89
2023/01/05 01:01:10;;;;;;;60.58;21.50;;;;;;;13.36;51.80;93483.47;4972737;28;20454;-88
2023/01/05 01:03:35;;;;;;;64.43;21.30;;;;;;;13.36;51.65;93483.47;4970035;28;20043;-91
2023/01/05 01:06:01;;;;;;;55.42;20.45;;;;;;;13.37;51.83;93465.97;4983097;28;20485;-92
2023/01/05 01:08:26;;;;;;;52.85;19.95;;;;;;;13.36;51.70;93467.94;4988562;28;20050;-87
2023/01/05 01:10:51;;;;;;;58.25;20.83;;;;;;;13.36;51.99;93491.63;5004938;28;20050;-87
2023/01/05 01:13:17;;;;;;;58.70;20.77;;;;;;;13.34;51.54;93483.94;4969637;28;20097;-90
2023/01/05 01:15:42;;;;;;;56.25;20.38;;;;;;;13.32;51.76;93480.22;4978780;28;20046;-89
2023/01/05 01:18:08;;;;;;;58.85;19.58;;;;;;;13.32;52.05;93491.81;5004865;28;20112;-86
2023/01/05 01:20:33;;;;;;;52.97;20.23;;;;;;;13.29;52.17;93511.00;5005282;28;20424;-92
2023/01/05 01:23:03;;;;;;;58.97;20.58;;;;;;;13.29;52.00;93511.75;4988701;28;20038;-92
2023/01/05 01:25:28;;;;;;;61.03;20.35;;;;;;;13.33;52.21;93506.88;4970306;28;20042;-88
2023/01/05 01:27:54;;;;;;;52.33;19.20;;;;;;;13.34;51.81;93458.75;4972499;28;20038;-88
2023/01/05 01:30:19;;;;;;;56.55;20.42;;;;;;;13.33;51.91;93487.13;5005133;28;20506;-87
2023/01/05 01:32:45;;;;;;;49.83;19.42;;;;;;;13.35;52.01;93471.13;4989484;28;20049;-85
2023/01/05 01:35:10;;;;;;;50.90;18.52;;;;;;;13.41;52.14;93487.47;4972178;28;20042;-85
2023/01/05 01:37:36;;;;;;;51.95;19.88;;;;;;;13.31;52.28;93495.00;5021643;28;20034;-85
2023/01/05 01:40:01;;;;;;;56.03;19.63;;;;;;;13.33;52.31;93492.56;5005523;28;20038;-84
2023/01/05 01:42:26;;;;;;;52.83;19.73;;;;;;;13.33;52.27;93503.41;5005481;28;20405;-88
2023/01/05 01:44:52;;;;;;;52.00;19.65;;;;;;;13.32;51.83;93491.06;4989202;28;20038;-90
2023/01/05 01:47:33;;;;;;;58.65;19.92;;;;;;;13.33;52.41;93489.84;4989415;28;20047;-85
2023/01/05 01:50:02;;;;;;;48.70;18.52;;;;;;;13.35;51.91;93482.72;4975043;28;20689;-87
2023/01/05 01:52:28;;;;;;;60.75;20.25;;;;;;;13.33;52.19;93479.72;4988606;28;20107;-88
2023/01/05 01:54:53;;;;;;;45.97;18.38;;;;;;;13.32;52.07;93483.66;4988264;28;20550;-90
2023/01/05 01:57:18;;;;;;;51.53;19.60;;;;;;;13.32;52.09;93493.78;4974652;28;20082;-92
2023/01/05 01:59:44;;;;;;;45.38;18.50;;;;;;;13.31;52.44;93495.75;4953772;28;20370;-85
2023/01/05 02:02:09;;;;;;;60.05;20.33;;;;;;;13.35;52.15;93514.56;4979133;28;20076;-85
2023/01/05 02:04:35;;;;;;;51.72;19.17;;;;;;;13.35;51.96;93493.59;4956462;28;20030;-89
2023/01/05 02:07:01;;;;;;;46.05;18.55;;;;;;;13.36;51.96;93502.47;4959722;28;20583;-88
2023/01/05 02:09:26;;;;;;;51.58;18.60;;;;;;;13.35;52.13;93487.41;4933379;28;20069;-94
2023/01/05 02:12:05;;;;;;;53.45;18.55;;;;;;;13.34;52.02;93485.91;4953777;28;20046;-88
2023/01/05 02:14:33;;;;;;;49.53;18.60;;;;;;;13.34;51.96;93475.06;4968116;28;20094;-86
2023/01/05 02:17:11;;;;;;;48.88;16.83;;;;;;;13.34;52.00;93480.47;4957346;28;20065;-92
2023/01/05 02:19:50;;;;;;;52.03;18.50;;;;;;;13.38;52.04;93475.59;4968624;28;20057;-89
2023/01/05 02:22:40;;;;;;;52.20;18.98;;;;;;;13.33;52.37;93468.88;4979355;28;20129;-85
2023/01/05 02:25:24;;;;;;;46.75;17.30;;;;;;;13.38;51.98;93462.03;4971052;28;20035;-92
2023/01/05 02:27:52;;;;;;;37.90;16.85;;;;;;;13.35;52.17;93452.13;4971972;28;20039;-90
2023/01/05 02:30:44;;;;;;;42.95;16.98;;;;;;;13.35;52.15;93444.72;4984497;28;20047;-85
2023/01/05 02:33:21;;;;;;;46.10;18.95;;;;;;;13.33;52.18;93447.16;4972879;28;20046;-88
2023/01/05 02:36:00;;;;;;;50.10;17.30;;;;;;;13.37;52.08;93438.81;5002627;28;20493;-94
2023/01/05 02:38:36;;;;;;;45.00;17.75;;;;;;;13.34;52.29;93435.06;4936575;28;20047;-92
2023/01/05 02:41:07;;;;;;;47.65;17.90;;;;;;;13.37;52.25;93425.97;4937963;28;20489;-86
2023/01/05 02:43:34;;;;;;;45.30;17.15;;;;;;;13.36;52.34;93427.19;4952160;28;20047;-85
2023/01/05 02:45:59;;;;;;;48.17;17.95;;;;;;;13.37;52.01;93412.41;4969631;28;20047;-86
2023/01/05 02:48:24;;;;;;;50.78;17.05;;;;;;;13.35;52.38;93409.41;4970393;28;20484;-86
2023/01/05 02:51:12;;;;;;;55.35;17.80;;;;;;;13.38;52.36;93413.16;4972284;28;20039;-86
2023/01/05 02:53:43;;;;;;;42.30;16.08;;;;;;;13.40;52.46;93407.25;4938432;28;20046;-93
2023/01/05 02:56:12;;;;;;;44.90;16.63;;;;;;;13.35;51.92;93405.97;4952203;28;20419;-85
2023/01/05 02:58:43;;;;;;;51.13;17.48;;;;;;;13.33;52.60;93402.97;4986398;28;20073;-87
2023/01/05 03:01:09;;;;;;;;;;;;;;;13.41;51.95;93414.91;4974377;28;20104;-91
2023/01/05 03:03:39;;;;;;;42.28;15.10;;;;;;;13.36;52.21;93397.34;4990788;28;19921;-85
2023/01/05 03:06:13;;;;;;;44.05;16.63;;;;;;;13.34;52.07;93394.34;4991077;28;20074;-88
2023/01/05 03:08:48;;;;;;;46.83;18.30;;;;;;;13.30;52.05;93374.81;4968987;28;20062;-85
2023/01/05 03:14:23;;;;;;;46.65;17.08;;;;;;;13.34;52.49;93369.16;4971887;28;20444;-90
2023/01/05 03:16:48;;;;;;;43.42;16.27;;;;;;;13.36;52.10;93364.00;4991604;28;20065;-91
2023/01/05 03:35:53;;;;;;;51.25;15.60;;;;;;;13.35;52.17;93355.13;4976247;28;20049;-86
2023/01/05 03:38:32;;;;;;;48.67;16.58;;;;;;;13.36;52.52;93347.72;4972654;28;20097;-85
2023/01/05 03:40:59;;;;;;;37.35;15.15;;;;;;;13.34;52.57;93347.44;4990059;28;20042;-91
2023/01/05 03:43:24;;;;;;;37.58;14.50;;;;;;;13.34;52.42;93339.31;4989241;28;20048;-85
2023/01/05 03:45:53;;;;;;;45.53;16.00;;;;;;;13.34;52.32;93329.19;4988912;28;20030;-85
2023/01/05 03:48:19;;;;;;;44.10;15.55;;;;;;;13.31;52.52;93330.16;4987938;28;20042;-85
2023/01/05 03:50:45;;;;;;;37.45;15.25;;;;;;;13.33;52.45;93346.72;4969831;28;20038;-85
2023/01/05 03:53:10;;;;;;;40.33;15.48;;;;;;;13.32;52.15;93336.31;4982486;28;20049;-85
2023/01/05 03:55:36;;;;;;;40.65;16.50;;;;;;;13.36;52.63;93334.88;4988999;28;20042;-84
2023/01/05 03:58:01;;;;;;;40.08;16.00;;;;;;;13.33;52.23;93329.66;4989981;28;20042;-85
2023/01/05 04:00:27;;;;;;;36.70;16.02;;;;;;;13.32;52.37;93328.19;4988757;28;20035;-86
2023/01/05 04:02:52;;;;;;;41.17;14.98;;;;;;;13.32;52.16;93322.75;4990643;28;20049;-86
2023/01/05 04:05:18;;;;;;;42.80;15.70;;;;;;;13.29;52.19;93329.88;4973504;28;20045;-88
2023/01/05 04:07:43;;;;;;;44.97;15.40;;;;;;;13.36;52.20;93315.88;4973912;28;20042;-88
2023/01/05 04:10:09;;;;;;;35.28;14.50;;;;;;;13.33;52.33;93319.56;4973501;28;20378;-92
2023/01/05 04:12:35;;;;;;;44.65;14.80;;;;;;;13.34;52.38;93318.34;4973726;28;20026;-90
2023/01/05 04:15:01;;;;;;;40.60;15.00;;;;;;;13.31;52.32;93319.28;4957072;28;20113;-90
2023/01/05 04:17:26;;;;;;;41.05;14.95;;;;;;;13.32;52.72;93326.22;4972902;28;20472;-88
2023/01/05 04:19:52;;;;;;;40.10;15.35;;;;;;;13.29;52.98;93321.72;4973404;28;20447;-88
2023/01/05 04:22:17;;;;;;;37.15;14.38;;;;;;;13.33;52.39;93318.81;4972672;28;20034;-85
2023/01/05 04:24:43;;;;;;;46.03;15.50;;;;;;;13.34;52.37;93315.63;4989129;28;20451;-92
2023/01/05 04:27:08;;;;;;;39.22;13.55;;;;;;;13.38;52.68;93321.59;4972511;28;20046;-90
2023/01/05 04:29:33;;;;;;;43.13;15.73;;;;;;;13.33;52.80;93332.38;4988915;28;20049;-94
2023/01/05 04:31:59;;;;;;;32.20;13.95;;;;;;;13.34;52.11;93328.44;4973686;28;20031;-86
2023/01/05 04:34:24;;;;;;;39.67;15.40;;;;;;;13.35;52.29;93314.41;4972997;28;20515;-89
2023/01/05 04:36:50;;;;;;;33.33;13.85;;;;;;;13.34;52.65;93310.19;4956526;28;20402;-85
2023/01/05 04:39:15;;;;;;;36.13;14.55;;;;;;;13.36;52.64;93298.84;4988965;28;20034;-86
2023/01/05 04:41:40;;;;;;;39.92;14.55;;;;;;;13.32;52.63;93298.31;4973906;28;20045;-85
2023/01/05 04:44:06;;;;;;;33.13;13.85;;;;;;;13.33;52.40;93294.38;4988261;28;20035;-86
2023/01/05 04:46:31;;;;;;;32.97;13.90;;;;;;;13.32;52.88;93292.88;4973382;28;20046;-85
2023/01/05 04:48:57;;;;;;;32.90;14.05;;;;;;;13.30;52.77;93290.66;4972758;28;20042;-86
2023/01/05 04:51:22;;;;;;;38.15;14.48;;;;;;;13.31;52.55;93296.81;4969213;28;20046;-88
2023/01/05 04:53:48;;;;;;;33.28;13.00;;;;;;;13.32;52.30;93299.06;4968634;28;20038;-86
2023/01/05 04:56:13;;;;;;;34.90;13.82;;;;;;;13.38;52.55;93290.97;5005366;28;20045;-85
2023/01/05 04:58:39;;;;;;;41.17;14.68;;;;;;;13.32;52.73;93282.03;4992039;28;20037;-90
2023/01/05 05:01:04;;;;;;;30.42;12.95;;;;;;;13.33;52.71;93286.22;4980246;28;20053;-85
2023/01/05 05:03:29;;;;;;;33.60;15.13;;;;;;;13.33;52.51;93278.84;4983968;28;20030;-85
2023/01/05 05:05:55;;;;;;;32.97;13.02;;;;;;;13.33;52.75;93281.56;4992130;28;20042;-92
2023/01/05 05:08:20;;;;;;;35.97;13.85;;;;;;;13.33;52.45;93283.53;4975547;28;20046;-88
2023/01/05 05:10:46;;;;;;;38.78;14.93;;;;;;;13.34;52.51;93287.72;4976664;28;20459;-88
2023/01/05 05:13:11;;;;;;;36.30;14.20;;;;;;;13.35;52.25;93272.94;4976776;28;20503;-87
2023/01/05 05:15:36;;;;;;;33.10;13.38;;;;;;;13.35;52.41;93283.78;5005337;28;20034;-85
2023/01/05 05:18:02;;;;;;;35.53;13.65;;;;;;;13.33;52.63;93286.97;5000828;28;20031;-87
2023/01/05 05:20:27;;;;;;;34.17;13.27;;;;;;;13.34;52.72;93279.59;4977742;28;20042;-85
2023/01/05 05:22:53;;;;;;;32.97;12.48;;;;;;;13.28;52.71;93251.63;4992424;28;20696;-86
2023/01/05 05:25:18;;;;;;;37.42;14.75;;;;;;;13.30;52.56;93249.19;4961201;28;20047;-85
2023/01/05 05:27:43;;;;;;;33.60;11.90;;;;;;;13.31;52.82;93242.53;4996803;28;20042;-91
2023/01/05 05:30:09;;;;;;;38.80;14.15;;;;;;;13.27;52.83;93240.03;4961054;28;20042;-86
2023/01/05 05:32:35;;;;;;;37.50;13.43;;;;;;;13.29;53.17;93242.25;4992139;28;20042;-85
2023/01/05 05:35:00;;;;;;;30.42;12.73;;;;;;;13.35;53.01;93264.78;5007501;28;20042;-90
2023/01/05 05:37:25;;;;;;;32.20;13.02;;;;;;;13.31;52.88;93264.25;4990812;28;20034;-85
2023/01/05 05:39:51;;;;;;;33.40;12.63;;;;;;;13.31;52.75;93283.25;5008777;28;20033;-89
2023/01/05 05:42:16;;;;;;;35.58;13.57;;;;;;;13.29;52.77;93278.31;5007188;28;20491;-85
2023/01/05 05:44:42;;;;;;;31.52;13.43;;;;;;;13.28;53.03;93270.63;4972903;28;20042;-89
2023/01/05 05:47:07;;;;;;;28.77;12.13;;;;;;;13.29;52.47;93275.59;5004245;28;20026;-90
2023/01/05 05:49:32;;;;;;;33.25;14.00;;;;;;;13.30;53.04;93268.94;5000841;28;20037;-87
2023/01/05 05:51:58;;;;;;;27.52;13.48;;;;;;;13.31;52.76;93283.25;4994065;28;20514;-91
2023/01/05 05:54:24;;;;;;;25.45;11.55;;;;;;;13.31;52.63;93267.72;5007747;28;20108;-94
2023/01/05 05:56:49;;;;;;;27.58;12.00;;;;;;;13.29;53.07;93269.41;5007315;28;20046;-91
2023/01/05 05:59:14;;;;;;;29.20;12.90;;;;;;;13.31;53.04;93281.28;4974618;28;20042;-89
2023/01/05 06:01:40;;;;;;;27.00;11.65;;;;;;;13.32;53.11;93273.88;4977360;28;20038;-86
2023/01/05 06:04:05;;;;;;;33.53;12.60;;;;;;;13.33;52.89;93299.81;5007299;28;20040;-90
2023/01/05 06:06:31;;;;;;;27.52;11.13;;;;;;;13.34;53.45;93295.88;5025095;28;20441;-89
2023/01/05 06:08:56;;;;;;;89.38;71.05;;;;;;;13.38;53.27;93280.84;5010577;28;20042;-86
2023/01/05 06:11:22;;;;;;;47.55;26.63;;;;;;;13.45;53.04;93301.38;5009855;28;20215;-86
2023/01/05 06:13:47;;;;;;;31.38;12.10;;;;;;;13.42;52.55;93307.78;5027287;28;20436;-87
2023/01/05 06:16:14;;;;;;;29.48;11.30;;;;;;;13.47;52.59;93284.63;5010827;28;20103;-86
2023/01/05 06:18:39;;;;;;;29.90;13.30;;;;;;;13.41;52.90;93311.00;4993961;28;20743;-86
2023/01/05 06:21:05;;;;;;;243.50;156.88;;;;;;;13.50;52.81;93308.84;4977738;28;20041;-87
2023/01/05 06:23:30;;;;;;;104.65;70.00;;;;;;;13.52;53.31;93292.81;4977964;28;20041;-87
2023/01/05 06:25:56;;;;;;;57.20;32.50;;;;;;;13.58;52.72;93290.88;4986759;28;20561;-88
2023/01/05 06:28:21;;;;;;;36.05;13.57;;;;;;;13.53;52.61;93294.31;4980615;28;20046;-87
2023/01/05 06:30:47;;;;;;;31.45;13.13;;;;;;;13.56;52.67;93298.03;5010136;28;20037;-87
2023/01/05 06:33:12;;;;;;;32.85;13.68;;;;;;;13.52;52.60;93292.81;5025549;28;20353;-86
2023/01/05 06:35:38;;;;;;;32.95;14.27;;;;;;;13.59;53.12;93297.81;4993604;28;20062;-86
2023/01/05 06:38:03;;;;;;;29.77;13.35;;;;;;;13.64;52.93;93305.25;5008792;28;20042;-86
2023/01/05 06:40:28;;;;;;;36.50;16.63;;;;;;;13.64;52.42;93302.53;4994535;28;20506;-89
2023/01/05 06:42:54;;;;;;;61.78;30.83;;;;;;;13.63;52.40;93294.88;5009873;28;20455;-87
2023/01/05 06:45:19;;;;;;;31.50;13.55;;;;;;;13.59;52.35;93300.53;5011501;28;20046;-86
2023/01/05 06:47:45;;;;;;;28.48;12.80;;;;;;;13.55;52.53;93308.16;4975354;28;20034;-86
2023/01/05 06:50:10;;;;;;;32.60;14.52;;;;;;;13.49;52.81;93322.91;5007038;28;20144;-86
2023/01/05 06:52:38;;;;;;;33.90;14.05;;;;;;;13.47;52.81;93322.63;4993383;28;20053;-86
2023/01/05 06:55:07;;;;;;;30.27;13.45;;;;;;;13.44;52.75;93326.28;4967973;28;20077;-86
2023/01/05 06:57:32;;;;;;;29.65;13.88;;;;;;;13.42;52.53;93326.81;4969472;28;20126;-86
2023/01/05 06:59:58;;;;;;;33.05;13.10;;;;;;;13.50;52.63;93335.25;4969616;28;20643;-86
2023/01/05 07:02:23;;;;;;;30.58;14.35;;;;;;;13.45;53.08;93314.97;4968448;28;20449;-86
2023/01/05 07:04:48;;;;;;;31.92;14.32;;;;;;;13.45;52.98;93336.69;4968091;28;20042;-88
2023/01/05 07:07:14;;;;;;;34.35;14.05;;;;;;;13.41;52.75;93341.59;4952931;28;20073;-86
2023/01/05 07:09:39;;;;;;;25.92;14.30;;;;;;;13.42;53.19;93347.78;4969209;28;20047;-90
2023/01/05 07:12:05;;;;;;;36.92;14.98;;;;;;;13.41;53.11;93346.28;4969661;28;20121;-88
2023/01/05 07:14:30;;;;;;;30.48;13.70;;;;;;;13.41;52.84;93340.84;4977326;28;20109;-88
2023/01/05 07:16:56;;;;;;;44.63;26.15;;;;;;;13.42;53.21;93336.91;4960036;28;20046;-84
2023/01/05 07:19:22;;;;;;;31.05;16.10;;;;;;;13.38;53.06;93332.44;4986147;28;20046;-87
2023/01/05 07:21:49;;;;;;;31.40;15.18;;;;;;;13.42;53.84;93348.53;5008044;28;20038;-87
2023/01/05 07:24:14;;;;;;;32.20;14.23;;;;;;;13.43;53.48;93344.56;4964141;28;20047;-89
2023/01/05 07:26:39;;;;;;;34.70;15.18;;;;;;;13.44;53.14;93329.00;5008370;28;20116;-86
2023/01/05 07:29:05;;;;;;;33.75;15.13;;;;;;;13.40;53.25;93342.81;4984785;28;20038;-85
2023/01/05 07:31:30;;;;;;;29.92;13.57;;;;;;;13.39;53.35;93352.19;4972038;28;20045;-85
2023/01/05 07:33:56;;;;;;;31.48;13.90;;;;;;;13.39;53.18;93333.19;4987028;28;20037;-88
2023/01/05 07:36:22;;;;;;;32.78;14.13;;;;;;;13.36;53.37;93337.59;5011571;28;20123;-88
2023/01/05 07:38:48;;;;;;;32.45;14.75;;;;;;;13.41;52.95;93349.75;4981205;28;20499;-87
2023/01/05 07:41:13;;;;;;;29.38;14.73;;;;;;;13.41;53.08;93341.59;4977911;28;20048;-87
2023/01/05 07:43:39;;;;;;;31.85;14.60;;;;;;;13.43;53.00;93351.97;4966428;28;20038;-86
2023/01/05 07:46:04;;;;;;;32.55;14.68;;;;;;;13.43;53.08;93341.84;4996565;28;20037;-87
2023/01/05 07:48:30;;;;;;;35.25;16.20;;;;;;;13.40;53.32;93348.25;4984500;28;20042;-87
2023/01/05 07:51:03;;;;;;;29.80;14.60;;;;;;;13.45;53.37;93354.94;4983050;28;20057;-87
2023/01/05 07:53:30;;;;;;;35.25;14.68;;;;;;;13.38;53.27;93348.72;4977181;23;20090;-87
2023/01/05 07:55:59;;;;;;;29.90;14.02;;;;;;;13.38;53.50;93356.13;4950917;28;20036;-87
2023/01/05 07:58:25;;;;;;;29.83;13.77;;;;;;;13.39;53.32;93357.63;4983654;28;20052;-87
2023/01/05 08:00:51;;;;;;;28.20;14.25;;;;;;;13.38;53.18;93350.69;5000142;28;20054;-84
2023/01/05 08:03:16;;;;;;;30.98;13.82;;;;;;;13.39;53.19;93352.19;4979725;28;20186;-84
2023/01/05 08:05:42;;;;;;;34.80;14.63;;;;;;;13.38;53.26;93354.16;4976387;28;20050;-86
2023/01/05 08:08:07;;;;;;;30.33;14.20;;;;;;;13.39;53.05;93357.63;4996098;28;20455;-86
2023/01/05 08:10:33;;;;;;;34.60;15.48;;;;;;;13.40;53.18;93377.38;4979575;28;20045;-87
2023/01/05 08:15:52;;;;;;;35.72;16.30;;;;;;;13.41;53.27;93371.47;4986022;28;20048;-85
2023/01/05 08:18:17;;;;;;;31.13;13.10;;;;;;;13.38;53.48;93383.28;4986480;28;20393;-85
2023/01/05 08:20:49;;;;;;;28.98;14.38;;;;;;;13.40;53.37;93380.84;4987071;28;20046;-86
2023/01/05 08:23:14;;;;;;;28.02;14.00;;;;;;;13.39;53.30;93368.47;4985385;28;20114;-87
2023/01/05 08:25:39;;;;;;;30.83;13.68;;;;;;;13.37;53.60;93368.22;4986303;28;20046;-85
2023/01/05 08:28:05;;;;;;;28.35;14.40;;;;;;;13.39;53.30;93365.78;4986865;28;20034;-85
2023/01/05 08:30:30;;;;;;;27.10;13.48;;;;;;;13.38;53.42;93377.84;4986574;28;20038;-92
2023/01/05 08:32:56;;;;;;;33.95;16.30;;;;;;;13.37;53.55;93385.25;4987622;28;20457;-86
2023/01/05 08:35:21;;;;;;;35.22;15.32;;;;;;;13.39;53.33;93382.06;4970528;28;20058;-88
2023/01/05 08:37:47;;;;;;;29.77;14.68;;;;;;;13.37;53.29;93379.06;4987048;28;20042;-89
2023/01/05 08:40:12;;;;;;;33.33;14.88;;;;;;;13.41;53.61;93378.88;4965520;28;20047;-85
2023/01/05 08:42:38;;;;;;;30.77;14.52;;;;;;;13.37;53.10;93384.50;4966067;28;20043;-88
2023/01/05 08:45:03;;;;;;;33.15;15.65;;;;;;;13.38;53.26;93391.44;4949645;28;20055;-87
2023/01/05 08:47:29;;;;;;;31.25;13.65;;;;;;;13.35;53.35;93376.09;4947105;28;20842;-85
2023/01/05 08:49:54;;;;;;;31.55;13.88;;;;;;;13.35;53.26;93400.53;4948971;28;20425;-88
2023/01/05 08:52:21;;;;;;;29.38;14.20;;;;;;;13.38;53.32;93403.03;4946322;28;20036;-85
2023/01/05 08:54:47;;;;;;;31.42;13.88;;;;;;;13.36;53.51;93407.44;4977586;28;20063;-86
2023/01/05 08:57:13;;;;;;;30.27;14.60;;;;;;;13.41;53.58;93406.03;4952153;28;20043;-86
2023/01/05 08:59:39;;;;;;;31.08;14.30;;;;;;;13.38;53.31;93403.03;4952772;28;20041;-88
2023/01/05 09:02:05;;;;;;;31.83;15.88;;;;;;;13.37;53.13;93412.41;4967359;28;20405;-90
2023/01/05 09:04:30;;;;;;;30.52;14.20;;;;;;;13.41;53.25;93414.91;4949564;28;20035;-86
2023/01/05 09:06:56;;;;;;;34.90;14.18;;;;;;;13.38;53.63;93411.19;4966445;28;20122;-88
2023/01/05 09:09:23;;;;;;;51.10;16.65;;;;;;;13.36;53.33;93412.88;4983574;28;20051;-86
2023/01/05 09:11:49;;;;;;;31.42;13.77;;;;;;;13.41;53.45;93416.88;4935982;28;20054;-87
2023/01/05 09:14:14;;;;;;;42.30;16.65;;;;;;;13.39;53.40;93417.34;4968347;28;20039;-85
2023/01/05 09:16:40;;;;;;;28.77;14.80;;;;;;;13.35;53.35;93423.00;4957794;28;20034;-85
2023/01/05 09:19:05;;;;;;;34.17;15.35;;;;;;;13.36;53.82;93443.50;4966921;28;20035;-84
2023/01/05 09:21:31;;;;;;;33.33;15.45;;;;;;;13.37;53.39;93427.94;4966988;28;20121;-85
2023/01/05 09:23:56;;;;;;;37.55;16.60;;;;;;;13.35;53.59;93447.44;4950552;28;20114;-84
2023/01/05 09:26:22;;;;;;;40.83;16.90;;;;;;;13.38;53.78;93451.91;4967448;28;20035;-85
2023/01/05 09:28:47;;;;;;;36.72;16.25;;;;;;;13.36;53.79;93451.63;4969152;28;20035;-93
2023/01/05 09:31:14;;;;;;;48.45;19.00;;;;;;;13.34;53.39;93445.19;4952340;28;20035;-89
2023/01/05 09:33:40;;;;;;;47.97;22.05;;;;;;;13.33;53.45;93463.44;5000292;28;20035;-86
2023/01/05 09:36:06;;;;;;;40.95;20.08;;;;;;;13.36;53.35;93467.94;4968169;28;20042;-87
2023/01/05 09:38:32;;;;;;;47.15;21.27;;;;;;;13.36;53.53;93484.22;4984056;28;20049;-85
2023/01/05 09:41:02;;;;;;;45.75;22.50;;;;;;;13.45;53.51;93475.16;4969272;28;20046;-89
2023/01/05 09:43:36;;;;;;;55.42;25.08;;;;;;;13.42;53.46;93465.28;5004600;28;20117;-87
2023/01/05 09:46:03;;;;;;;61.08;26.60;;;;;;;13.42;53.63;93470.72;4972599;28;20122;-85
2023/01/05 09:48:28;;;;;;;57.15;27.58;;;;;;;13.41;53.79;93474.66;5004316;28;20077;-85
2023/01/05 09:50:54;;;;;;;60.95;27.13;;;;;;;13.45;53.63;93463.56;4971915;28;20038;-91
2023/01/05 09:53:25;;;;;;;58.67;27.35;;;;;;;13.43;53.51;93477.59;4994378;28;20039;-85
2023/01/05 09:55:50;;;;;;;;;;;;;;;13.50;53.50;93469.06;4976407;28;20047;-89
2023/01/05 09:58:19;;;;;;;53.37;23.10;;;;;;;13.45;53.57;93482.56;4972054;28;20348;-86
2023/01/05 10:00:49;;;;;;;49.28;22.05;;;;;;;13.44;53.23;93483.78;4971940;28;20795;-86
2023/01/05 10:03:18;;;;;;;48.15;22.52;;;;;;;13.40;53.78;93481.31;5003094;28;20047;-85
2023/01/05 10:05:43;;;;;;;47.15;21.85;;;;;;;13.41;53.76;93482.03;4988604;28;20585;-85
2023/01/05 10:08:17;;;;;;;49.58;23.02;;;;;;;13.41;53.71;93492.91;4971204;28;20146;-85
2023/01/05 10:13:01;;;;;;;51.38;22.92;;;;;;;13.44;53.50;93475.63;4970983;28;20117;-86
2023/01/05 10:13:35;;;;;;;;;;;;;;;13.48;53.35;93487.78;4984642;28;20098;-87
2023/01/05 10:16:01;;;;;;;50.95;22.42;;;;;;;13.43;53.54;93502.03;4984027;28;19926;-88
2023/01/05 10:18:27;;;;;;;44.67;21.42;;;;;;;13.42;53.54;93484.28;4951912;28;20047;-88
2023/01/05 10:21:13;;;;;;;46.75;22.48;;;;;;;13.41;53.57;93484.75;5004500;28;20035;-86
2023/01/05 10:23:57;;;;;;;51.30;22.15;;;;;;;13.44;53.84;93497.38;4985242;28;20070;-88
2023/01/05 10:26:29;;;;;;;49.17;23.00;;;;;;;13.38;53.67;93495.34;4969736;28;20051;-89
2023/01/05 10:29:05;;;;;;;43.95;21.80;;;;;;;13.41;53.74;93485.50;4955395;28;20563;-89
2023/01/05 10:31:45;;;;;;;49.72;21.90;;;;;;;13.42;53.82;93488.97;4969819;28;20092;-89
2023/01/05 10:34:22;;;;;;;51.47;24.27;;;;;;;13.42;53.46;93481.56;4970571;28;20154;-86
2023/01/05 10:36:54;;;;;;;46.95;21.63;;;;;;;13.42;53.46;93480.81;4983144;28;20118;-86
2023/01/05 10:39:46;;;;;;;47.53;22.65;;;;;;;13.41;53.75;93485.50;4986179;28;20090;-91
2023/01/05 10:42:21;;;;;;;47.97;20.95;;;;;;;13.41;53.69;93488.22;4999058;28;20051;-88
2023/01/05 10:44:58;;;;;;;51.55;21.98;;;;;;;13.44;53.51;93494.66;4984715;28;20043;-89
2023/01/05 10:47:24;;;;;;;44.15;21.98;;;;;;;13.40;53.82;93500.31;4986964;28;20042;-93
2023/01/05 10:49:49;;;;;;;49.03;22.15;;;;;;;13.43;53.51;93493.16;4987385;28;20631;-85
2023/01/05 10:52:17;;;;;;;49.05;21.42;;;;;;;13.42;53.40;93507.97;4937388;28;20050;-91
2023/01/05 10:54:50;;;;;;;44.63;21.08;;;;;;;13.42;53.80;93488.97;4985806;28;20162;-91
2023/01/05 10:57:27;;;;;;;43.40;21.15;;;;;;;13.44;53.69;93500.06;4985377;28;20611;-85
2023/01/05 11:00:14;;;;;;;44.15;21.15;;;;;;;13.45;53.59;93510.47;4971773;28;20043;-87
2023/01/05 11:02:48;;;;;;;48.30;20.50;;;;;;;13.46;53.67;93506.53;4982837;28;20129;-86
2023/01/05 11:05:18;;;;;;;51.15;20.65;;;;;;;13.42;53.64;93495.16;4985805;28;20102;-91
2023/01/05 11:07:50;;;;;;;44.80;19.92;;;;;;;13.44;53.28;93508.22;4972709;28;20416;-93
2023/01/05 11:10:29;;;;;;;40.63;20.35;;;;;;;13.43;53.43;93506.72;4986611;28;20035;-85
2023/01/05 11:13:05;;;;;;;41.20;20.13;;;;;;;13.42;53.47;93510.69;4981135;28;20042;-85
2023/01/05 11:15:31;;;;;;;193.75;132.93;;;;;;;13.43;53.48;93521.06;4958013;28;20030;-84
2023/01/05 11:17:58;;;;;;;52.25;26.98;;;;;;;13.43;53.30;93510.19;4969180;28;20147;-90
2023/01/05 11:20:23;;;;;;;43.28;21.00;;;;;;;13.38;53.54;93508.94;4998153;28;20034;-85
2023/01/05 11:22:50;;;;;;;38.45;19.75;;;;;;;13.38;53.81;93503.50;4969239;28;20058;-85
2023/01/05 11:25:28;;;;;;;42.80;20.42;;;;;;;13.41;53.62;93499.09;4953255;28;20131;-85
2023/01/05 11:28:08;;;;;;;42.53;22.33;;;;;;;13.46;53.76;93511.22;4972010;28;20042;-85
2023/01/05 11:30:33;;;;;;;45.58;19.98;;;;;;;13.42;53.66;93497.13;4976877;28;20509;-88
2023/01/05 11:33:00;;;;;;;38.63;19.85;;;;;;;13.44;53.57;93508.97;4983408;28;20102;-86
2023/01/05 11:35:25;;;;;;;43.25;20.75;;;;;;;13.42;53.60;93497.88;4969503;28;20039;-90
2023/01/05 11:37:51;;;;;;;46.65;19.23;;;;;;;13.46;53.54;93505.78;4972247;28;20520;-86
2023/01/05 11:40:17;;;;;;;42.90;20.05;;;;;;;13.41;53.61;93499.09;4969567;28;20065;-91
2023/01/05 11:42:43;;;;;;;39.40;19.50;;;;;;;13.45;53.37;93510.47;5002748;28;20045;-90
2023/01/05 11:45:19;;;;;;;43.10;19.52;;;;;;;13.45;53.33;93507.00;4968394;28;20134;-86
2023/01/05 11:47:53;;;;;;;42.58;20.02;;;;;;;13.47;53.69;93515.41;4970251;28;20121;-86
2023/01/05 11:50:26;;;;;;;38.83;19.77;;;;;;;13.42;53.66;93516.13;4985333;28;20062;-86
2023/01/05 11:53:01;;;;;;;44.33;20.27;;;;;;;13.45;53.84;93515.16;4968751;28;20070;-90
2023/01/05 11:55:33;;;;;;;48.45;19.08;;;;;;;13.46;53.64;93503.06;4968871;28;20570;-90